Time;durP1;ratioP1;P1;durP2;ratioP2;P2;SDS_P1;SDS_P2;PMS_P1;PMS_P2;Temp;Humidity;BMP_temperature;BMP_pressure;BME280_temperature;BME280_humidity;BME280_pressure;Samples;Min_cycle;Max_cycle;Signal;HPM_P1;HPM_P2
2023/07/17 00:01:18;;;;;;;3.80;3.40;;;;;;;-128.00;-1.00;-1.00;97877;285;1003106;-32
2023/07/17 00:03:44;;;;;;;3.00;2.70;;;;;;;-128.00;-1.00;-1.00;97960;295;1003411;-36
2023/07/17 00:06:10;;;;;;;3.10;2.80;;;;;;;-128.00;-1.00;-1.00;97977;295;1003759;-35
2023/07/17 00:08:35;;;;;;;3.30;1.90;;;;;;;-128.00;-1.00;-1.00;97866;295;1005330;-35
2023/07/17 00:11:01;;;;;;;3.00;2.70;;;;;;;-128.00;-1.00;-1.00;98053;295;1003982;-35
2023/07/17 00:13:27;;;;;;;1.50;1.30;;;;;;;-128.00;-1.00;-1.00;97796;295;1002776;-34
2023/07/17 00:15:53;;;;;;;3.10;2.20;;;;;;;-128.00;-1.00;-1.00;97837;295;1004855;-37
2023/07/17 00:18:19;;;;;;;2.50;2.00;;;;;;;-128.00;-1.00;-1.00;97915;295;1003236;-36
2023/07/17 00:20:44;;;;;;;2.50;1.90;;;;;;;-128.00;-1.00;-1.00;97814;295;1002556;-35
2023/07/17 00:23:10;;;;;;;2.10;1.30;;;;;;;-128.00;-1.00;-1.00;98091;295;1004481;-31
2023/07/17 00:25:36;;;;;;;3.40;2.30;;;;;;;-128.00;-1.00;-1.00;97918;295;1003075;-36
2023/07/17 00:28:02;;;;;;;3.10;2.70;;;;;;;-128.00;-1.00;-1.00;97959;295;1002934;-30
2023/07/17 00:30:29;;;;;;;7.60;6.80;;;;;;;-128.00;-1.00;-1.00;97847;295;1002815;-36
2023/07/17 00:32:55;;;;;;;14.90;13.00;;;;;;;-128.00;-1.00;-1.00;97813;295;1002950;-31
2023/07/17 00:35:21;;;;;;;8.20;6.90;;;;;;;-128.00;-1.00;-1.00;97763;295;1002752;-34
2023/07/17 00:37:46;;;;;;;9.60;8.60;;;;;;;-128.00;-1.00;-1.00;97864;295;1003596;-31
2023/07/17 01:19:26;;;;;;;3.50;2.70;;;;;;;-98.95;19.20;19883.55;19551;297;8045260;-37
2023/07/17 01:21:56;;;;;;;4.80;3.10;;;;;;;-128.00;-1.00;-1.00;18467;351;7504901;-33
2023/07/17 01:24:22;;;;;;;2.70;2.00;;;;;;;-128.00;-1.00;-1.00;18482;297;7504940;-33
2023/07/17 01:26:48;;;;;;;2.40;2.20;;;;;;;-128.00;-1.00;-1.00;18449;298;7506879;-33
2023/07/17 01:29:13;;;;;;;1.70;1.60;;;;;;;-128.00;-1.00;-1.00;18454;297;7504422;-37
2023/07/17 01:31:41;;;;;;;2.40;2.00;;;;;;;-128.00;-1.00;-1.00;18470;297;7504607;-37
2023/07/17 01:34:07;;;;;;;2.00;1.70;;;;;;;-128.00;-1.00;-1.00;18470;349;7505187;-36
2023/07/17 01:36:32;;;;;;;1.80;1.60;;;;;;;-128.00;-1.00;-1.00;18477;349;7506791;-31
2023/07/17 01:38:58;;;;;;;3.10;2.30;;;;;;;-128.00;-1.00;-1.00;18443;297;7504902;-33
2023/07/17 01:41:24;;;;;;;3.10;2.90;;;;;;;-128.00;-1.00;-1.00;18862;296;7504152;-32
2023/07/17 01:43:51;;;;;;;3.70;3.30;;;;;;;-128.00;-1.00;-1.00;18894;297;7505292;-32
2023/07/17 01:46:17;;;;;;;7.20;2.30;;;;;;;-128.00;-1.00;-1.00;18865;297;7504603;-35
2023/07/17 01:48:44;;;;;;;3.40;3.20;;;;;;;-128.00;-1.00;-1.00;18457;349;7506157;-32
2023/07/17 01:51:09;;;;;;;3.00;2.70;;;;;;;-128.00;-1.00;-1.00;18486;297;7504580;-35
2023/07/17 01:53:35;;;;;;;3.60;3.30;;;;;;;-128.00;-1.00;-1.00;18462;297;7504885;-32
2023/07/17 01:56:01;;;;;;;3.50;2.70;;;;;;;-128.00;-1.00;-1.00;18862;333;7504375;-32
2023/07/17 01:58:27;;;;;;;4.60;3.10;;;;;;;-128.00;-1.00;-1.00;18849;297;7504503;-35
2023/07/17 02:00:54;;;;;;;2.70;2.40;;;;;;;-128.00;-1.00;-1.00;18855;337;7504139;-34
2023/07/17 02:03:20;;;;;;;2.30;2.10;;;;;;;-128.00;-1.00;-1.00;18457;297;7505222;-32
2023/07/17 02:05:46;;;;;;;3.10;1.80;;;;;;;-128.00;-1.00;-1.00;18486;296;7504654;-35
2023/07/17 02:08:11;;;;;;;2.30;2.10;;;;;;;-128.00;-1.00;-1.00;18471;289;7504175;-36
2023/07/17 02:10:42;;;;;;;2.00;1.70;;;;;;;-128.00;-1.00;-1.00;18855;297;7504563;-33
2023/07/17 02:13:07;;;;;;;2.50;2.10;;;;;;;-128.00;-1.00;-1.00;18484;297;7504904;-32
2023/07/17 02:15:33;;;;;;;6.30;2.90;;;;;;;-128.00;-1.00;-1.00;18875;297;7504908;-35
2023/07/17 02:18:00;;;;;;;4.50;3.60;;;;;;;-128.00;-1.00;-1.00;18875;314;7504868;-36
2023/07/17 02:20:27;;;;;;;5.20;3.00;;;;;;;-128.00;-1.00;-1.00;18845;297;7505362;-35
2023/07/17 02:22:52;;;;;;;3.60;3.20;;;;;;;-128.00;-1.00;-1.00;18464;298;7504998;-35
2023/07/17 02:25:19;;;;;;;3.00;2.70;;;;;;;-128.00;-1.00;-1.00;18843;298;7505117;-36
2023/07/17 02:27:45;;;;;;;5.10;2.20;;;;;;;-128.00;-1.00;-1.00;18485;298;7504575;-35
2023/07/17 02:30:11;;;;;;;3.20;2.80;;;;;;;-128.00;-1.00;-1.00;18461;298;7504212;-35
2023/07/17 02:32:38;;;;;;;3.00;2.60;;;;;;;-128.00;-1.00;-1.00;18460;298;7506630;-36
2023/07/17 02:35:04;;;;;;;3.40;2.90;;;;;;;-128.00;-1.00;-1.00;18447;321;7506973;-32
2023/07/17 02:37:30;;;;;;;3.50;2.80;;;;;;;-128.00;-1.00;-1.00;18453;299;7506021;-31
2023/07/17 02:39:56;;;;;;;4.00;3.00;;;;;;;-128.00;-1.00;-1.00;18449;349;7504049;-36
2023/07/17 02:42:22;;;;;;;4.80;2.10;;;;;;;-128.00;-1.00;-1.00;18453;297;7504424;-33
2023/07/17 02:44:47;;;;;;;3.80;2.90;;;;;;;-128.00;-1.00;-1.00;18479;320;7506289;-33
2023/07/17 02:47:14;;;;;;;3.80;3.30;;;;;;;-128.00;-1.00;-1.00;18480;297;7505074;-36
2023/07/17 02:49:40;;;;;;;3.50;3.10;;;;;;;-128.00;-1.00;-1.00;18471;299;7504859;-36
2023/07/17 02:52:06;;;;;;;7.90;4.40;;;;;;;-128.00;-1.00;-1.00;18478;349;7504531;-37
2023/07/17 02:54:32;;;;;;;3.30;3.00;;;;;;;-128.00;-1.00;-1.00;18484;309;7507439;-36
2023/07/17 02:56:57;;;;;;;5.60;4.30;;;;;;;-128.00;-1.00;-1.00;18461;298;7504555;-33
2023/07/17 02:59:23;;;;;;;5.30;4.30;;;;;;;-128.00;-1.00;-1.00;18867;299;7504843;-33
2023/07/17 03:01:50;;;;;;;7.80;3.90;;;;;;;-128.00;-1.00;-1.00;18867;298;7505488;-37
2023/07/17 03:04:16;;;;;;;3.30;2.50;;;;;;;-128.00;-1.00;-1.00;18875;309;7506107;-37
2023/07/17 03:06:43;;;;;;;5.00;3.10;;;;;;;-128.00;-1.00;-1.00;18847;298;7504806;-36
2023/07/17 03:09:08;;;;;;;2.50;2.30;;;;;;;-128.00;-1.00;-1.00;18494;349;7504253;-33
2023/07/17 03:11:35;;;;;;;4.50;3.00;;;;;;;-128.00;-1.00;-1.00;18878;337;7504467;-33
2023/07/17 03:14:01;;;;;;;6.30;4.60;;;;;;;-128.00;-1.00;-1.00;18873;297;7504490;-33
2023/07/17 03:16:27;;;;;;;7.00;3.50;;;;;;;-128.00;-1.00;-1.00;18868;297;7506933;-37
2023/07/17 03:18:53;;;;;;;4.90;4.50;;;;;;;-128.00;-1.00;-1.00;18880;297;7504650;-37
2023/07/17 03:21:19;;;;;;;10.40;4.50;;;;;;;-128.00;-1.00;-1.00;18853;297;7504915;-33
2023/07/17 03:23:47;;;;;;;3.20;2.90;;;;;;;-128.00;-1.00;-1.00;18858;349;7504403;-37
2023/07/17 03:26:12;;;;;;;7.10;3.20;;;;;;;-128.00;-1.00;-1.00;18469;298;7504608;-33
2023/07/17 03:28:38;;;;;;;3.70;3.40;;;;;;;-128.00;-1.00;-1.00;18459;298;7504836;-33
2023/07/17 03:31:04;;;;;;;10.00;3.60;;;;;;;-128.00;-1.00;-1.00;18454;297;7505802;-34
2023/07/17 03:33:32;;;;;;;5.40;3.20;;;;;;;-128.00;-1.00;-1.00;18454;349;7504953;-34
2023/07/17 03:35:58;;;;;;;4.50;3.20;;;;;;;-128.00;-1.00;-1.00;18463;298;7506697;-37
2023/07/17 03:38:23;;;;;;;5.30;3.20;;;;;;;-128.00;-1.00;-1.00;18485;297;7504200;-37
2023/07/17 03:40:50;;;;;;;6.90;3.20;;;;;;;-128.00;-1.00;-1.00;18863;297;7504775;-38
2023/07/17 03:43:16;;;;;;;4.10;3.30;;;;;;;-128.00;-1.00;-1.00;18864;285;7504931;-33
2023/07/17 03:45:42;;;;;;;5.20;4.00;;;;;;;-128.00;-1.00;-1.00;18856;302;7504915;-36
2023/07/17 03:48:08;;;;;;;6.70;3.50;;;;;;;-128.00;-1.00;-1.00;18878;349;7505411;-36
2023/07/17 03:50:35;;;;;;;12.80;3.90;;;;;;;-128.00;-1.00;-1.00;18847;309;7504624;-33
2023/07/17 03:53:01;;;;;;;2.90;2.70;;;;;;;-128.00;-1.00;-1.00;18451;298;7504530;-36
2023/07/17 03:55:27;;;;;;;8.10;4.50;;;;;;;-128.00;-1.00;-1.00;18458;341;7504065;-37
2023/07/17 03:57:52;;;;;;;20.30;4.50;;;;;;;-128.00;-1.00;-1.00;18473;297;7505238;-37
2023/07/17 04:00:18;;;;;;;4.30;3.00;;;;;;;-128.00;-1.00;-1.00;18498;297;7505085;-33
2023/07/17 04:02:44;;;;;;;8.00;3.00;;;;;;;-128.00;-1.00;-1.00;18460;349;7505481;-33
2023/07/17 04:05:10;;;;;;;4.20;3.00;;;;;;;-128.00;-1.00;-1.00;18478;297;7505303;-33
2023/07/17 04:07:36;;;;;;;6.60;4.00;;;;;;;-128.00;-1.00;-1.00;18465;349;7504407;-36
2023/07/17 04:10:03;;;;;;;3.60;3.30;;;;;;;-128.00;-1.00;-1.00;18477;297;7504774;-36
2023/07/17 04:12:29;;;;;;;3.70;2.50;;;;;;;-128.00;-1.00;-1.00;18470;298;7505994;-36
2023/07/17 04:14:55;;;;;;;4.80;3.40;;;;;;;-128.00;-1.00;-1.00;18461;309;7506384;-39
2023/07/17 04:17:21;;;;;;;9.50;4.10;;;;;;;-128.00;-1.00;-1.00;18847;299;7505556;-34
2023/07/17 04:19:47;;;;;;;4.00;3.10;;;;;;;-128.00;-1.00;-1.00;18462;288;7507261;-37
2023/07/17 04:22:13;;;;;;;7.90;4.60;;;;;;;-128.00;-1.00;-1.00;18880;298;7505646;-34
2023/07/17 04:24:40;;;;;;;12.10;4.70;;;;;;;-128.00;-1.00;-1.00;18844;298;7504757;-33
2023/07/17 04:27:06;;;;;;;6.70;4.10;;;;;;;-128.00;-1.00;-1.00;18849;297;7505241;-39
2023/07/17 04:29:32;;;;;;;3.70;3.00;;;;;;;-128.00;-1.00;-1.00;18868;349;7504840;-34
2023/07/17 04:31:58;;;;;;;3.10;2.80;;;;;;;-128.00;-1.00;-1.00;18857;297;7505112;-38
2023/07/17 04:34:25;;;;;;;5.90;2.80;;;;;;;-128.00;-1.00;-1.00;18863;298;7504332;-34
2023/07/17 04:36:51;;;;;;;7.80;3.80;;;;;;;-128.00;-1.00;-1.00;18451;298;7505735;-35
2023/07/17 04:39:16;;;;;;;5.30;3.30;;;;;;;-128.00;-1.00;-1.00;18464;298;7505381;-34
2023/07/17 04:41:42;;;;;;;5.20;4.20;;;;;;;-128.00;-1.00;-1.00;18468;297;7506212;-35
2023/07/17 04:44:08;;;;;;;6.30;4.20;;;;;;;-128.00;-1.00;-1.00;18456;297;7505282;-39
2023/07/17 04:46:34;;;;;;;4.70;4.30;;;;;;;-128.00;-1.00;-1.00;18451;309;7506251;-35
2023/07/17 04:48:59;;;;;;;4.40;4.10;;;;;;;-128.00;-1.00;-1.00;18470;338;7504361;-33
2023/07/17 04:51:25;;;;;;;3.40;2.90;;;;;;;-128.00;-1.00;-1.00;18435;299;7504786;-39
2023/07/17 04:53:52;;;;;;;3.80;3.00;;;;;;;-128.00;-1.00;-1.00;18457;349;7506754;-34
2023/07/17 04:56:17;;;;;;;8.00;4.60;;;;;;;-128.00;-1.00;-1.00;18457;302;7504759;-34
2023/07/17 04:58:43;;;;;;;5.40;4.80;;;;;;;-128.00;-1.00;-1.00;18829;297;7504376;-37
2023/07/17 05:01:09;;;;;;;4.50;4.10;;;;;;;-128.00;-1.00;-1.00;18863;298;7504373;-33
2023/07/17 05:03:36;;;;;;;4.90;4.20;;;;;;;-128.00;-1.00;-1.00;18860;297;7504336;-35
2023/07/17 05:06:03;;;;;;;14.20;4.30;;;;;;;-128.00;-1.00;-1.00;18456;286;7506286;-33
2023/07/17 05:08:28;;;;;;;6.80;5.80;;;;;;;-128.00;-1.00;-1.00;18458;297;7504671;-33
2023/07/17 05:10:55;;;;;;;4.70;4.30;;;;;;;-128.00;-1.00;-1.00;18863;297;7505353;-36
2023/07/17 05:13:21;;;;;;;21.20;19.30;;;;;;;-128.00;-1.00;-1.00;18459;298;7505899;-38
2023/07/17 05:15:46;;;;;;;6.40;5.90;;;;;;;-128.00;-1.00;-1.00;18448;339;7504875;-34
2023/07/17 05:18:13;;;;;;;5.30;4.00;;;;;;;-128.00;-1.00;-1.00;18855;349;7504678;-32
2023/07/17 05:20:39;;;;;;;5.50;4.40;;;;;;;-128.00;-1.00;-1.00;18863;349;7504130;-33
2023/07/17 05:23:05;;;;;;;5.00;4.60;;;;;;;-128.00;-1.00;-1.00;18845;298;7504945;-36
2023/07/17 05:25:31;;;;;;;8.00;5.30;;;;;;;-128.00;-1.00;-1.00;18874;298;7505062;-33
2023/07/17 05:27:57;;;;;;;5.90;4.10;;;;;;;-128.00;-1.00;-1.00;18877;297;7505274;-38
2023/07/17 05:30:24;;;;;;;4.90;4.30;;;;;;;-128.00;-1.00;-1.00;18876;289;7504863;-33
2023/07/17 05:32:50;;;;;;;7.90;4.60;;;;;;;-128.00;-1.00;-1.00;18864;339;7504301;-37
2023/07/17 05:35:16;;;;;;;6.60;4.00;;;;;;;-128.00;-1.00;-1.00;18466;298;7506666;-34
2023/07/17 05:37:42;;;;;;;4.80;4.10;;;;;;;-128.00;-1.00;-1.00;18865;349;7504647;-37
2023/07/17 05:40:10;;;;;;;5.30;4.70;;;;;;;-128.00;-1.00;-1.00;18853;298;7504381;-33
2023/07/17 05:42:36;;;;;;;4.90;4.50;;;;;;;-128.00;-1.00;-1.00;18446;298;7504957;-36
2023/07/17 05:45:03;;;;;;;3.90;3.60;;;;;;;-128.00;-1.00;-1.00;18476;309;7504348;-36
2023/07/17 05:47:29;;;;;;;4.70;4.00;;;;;;;-128.00;-1.00;-1.00;18456;298;7504666;-35
2023/07/17 05:49:54;;;;;;;6.40;3.70;;;;;;;-128.00;-1.00;-1.00;18447;349;7504377;-37
2023/07/17 05:52:21;;;;;;;4.00;3.70;;;;;;;-128.00;-1.00;-1.00;18870;298;7504707;-33
2023/07/17 05:54:47;;;;;;;5.80;3.60;;;;;;;-128.00;-1.00;-1.00;18874;298;7504626;-35
2023/07/17 05:57:13;;;;;;;3.50;3.20;;;;;;;-128.00;-1.00;-1.00;18880;298;7504941;-33
2023/07/17 05:59:40;;;;;;;3.30;3.00;;;;;;;-128.00;-1.00;-1.00;18877;298;7504991;-36
2023/07/17 06:02:06;;;;;;;3.10;2.40;;;;;;;-128.00;-1.00;-1.00;18448;298;7504546;-33
2023/07/17 06:04:32;;;;;;;3.50;3.20;;;;;;;-128.00;-1.00;-1.00;18471;317;7506549;-32
2023/07/17 06:06:58;;;;;;;11.60;2.90;;;;;;;-128.00;-1.00;-1.00;18474;297;7505784;-32
2023/07/17 06:09:23;;;;;;;3.10;2.20;;;;;;;-128.00;-1.00;-1.00;18462;297;7505801;-32
2023/07/17 06:11:49;;;;;;;5.40;3.10;;;;;;;-128.00;-1.00;-1.00;18485;298;7504322;-32
2023/07/17 06:14:15;;;;;;;4.40;2.40;;;;;;;-128.00;-1.00;-1.00;18868;297;7504672;-32
2023/07/17 06:16:41;;;;;;;2.90;2.30;;;;;;;-128.00;-1.00;-1.00;18898;297;7504702;-36
2023/07/17 06:19:08;;;;;;;4.40;2.40;;;;;;;-128.00;-1.00;-1.00;18869;317;7504862;-37
2023/07/17 06:21:34;;;;;;;2.20;2.00;;;;;;;-128.00;-1.00;-1.00;18890;298;7504960;-32
2023/07/17 06:24:00;;;;;;;2.90;2.10;;;;;;;-128.00;-1.00;-1.00;18883;349;7504629;-32
2023/07/17 06:26:26;;;;;;;2.70;2.40;;;;;;;-128.00;-1.00;-1.00;18874;298;7504485;-35
2023/07/17 06:28:52;;;;;;;7.70;2.30;;;;;;;-128.00;-1.00;-1.00;18880;298;7504318;-33
2023/07/17 06:31:18;;;;;;;8.10;2.80;;;;;;;-128.00;-1.00;-1.00;18883;289;7504778;-36
2023/07/17 06:33:45;;;;;;;11.50;2.50;;;;;;;-128.00;-1.00;-1.00;18460;289;7505089;-32
2023/07/17 06:36:12;;;;;;;2.60;1.90;;;;;;;-128.00;-1.00;-1.00;18465;339;7505076;-32
2023/07/17 06:38:38;;;;;;;1.90;1.80;;;;;;;-128.00;-1.00;-1.00;18477;299;7506055;-35
2023/07/17 06:41:04;;;;;;;3.00;2.30;;;;;;;-128.00;-1.00;-1.00;18464;299;7504333;-35
2023/07/17 06:43:30;;;;;;;3.90;2.40;;;;;;;-128.00;-1.00;-1.00;18469;298;7504646;-32
2023/07/17 06:45:56;;;;;;;2.90;2.60;;;;;;;-128.00;-1.00;-1.00;18471;338;7505172;-33
2023/07/17 06:48:22;;;;;;;2.70;1.60;;;;;;;-128.00;-1.00;-1.00;18882;297;7504832;-37
2023/07/17 06:50:48;;;;;;;2.00;1.40;;;;;;;-128.00;-1.00;-1.00;18479;298;7504789;-32
2023/07/17 06:53:14;;;;;;;2.70;1.90;;;;;;;-128.00;-1.00;-1.00;18869;285;7504976;-35
2023/07/17 06:55:40;;;;;;;2.80;2.10;;;;;;;-128.00;-1.00;-1.00;18850;298;7504567;-32
2023/07/17 06:58:07;;;;;;;4.00;2.70;;;;;;;-128.00;-1.00;-1.00;18875;349;7506224;-36
2023/07/17 07:00:33;;;;;;;4.00;2.50;;;;;;;-128.00;-1.00;-1.00;18877;349;7504951;-34
2023/07/17 07:02:59;;;;;;;2.50;2.10;;;;;;;-128.00;-1.00;-1.00;18888;342;7505196;-34
2023/07/17 07:05:26;;;;;;;3.20;2.40;;;;;;;-128.00;-1.00;-1.00;18859;298;7505196;-37
2023/07/17 07:07:52;;;;;;;3.00;2.60;;;;;;;-128.00;-1.00;-1.00;18839;298;7504533;-33
2023/07/17 07:10:18;;;;;;;3.00;2.70;;;;;;;-128.00;-1.00;-1.00;18875;297;7504296;-35
2023/07/17 07:12:45;;;;;;;2.90;2.20;;;;;;;-128.00;-1.00;-1.00;18882;297;7504970;-36
2023/07/17 07:15:11;;;;;;;6.70;2.70;;;;;;;-128.00;-1.00;-1.00;18860;297;7504478;-32
2023/07/17 07:17:37;;;;;;;2.20;2.00;;;;;;;-128.00;-1.00;-1.00;18862;297;7504380;-36
2023/07/17 07:20:05;;;;;;;3.30;2.00;;;;;;;-128.00;-1.00;-1.00;18854;341;7504573;-33
2023/07/17 07:22:30;;;;;;;1.70;1.60;;;;;;;-128.00;-1.00;-1.00;18470;322;7505252;-36
2023/07/17 07:24:57;;;;;;;2.30;1.90;;;;;;;-128.00;-1.00;-1.00;18873;297;7505113;-33
2023/07/17 07:27:23;;;;;;;1.70;1.60;;;;;;;-128.00;-1.00;-1.00;18871;338;7504880;-33
2023/07/17 07:29:49;;;;;;;2.60;1.70;;;;;;;-128.00;-1.00;-1.00;18869;297;7504655;-36
2023/07/17 07:32:15;;;;;;;4.50;1.70;;;;;;;-128.00;-1.00;-1.00;18863;310;7504783;-33
2023/07/17 07:34:42;;;;;;;2.30;2.00;;;;;;;-128.00;-1.00;-1.00;18887;297;7504751;-33
2023/07/17 07:37:08;;;;;;;6.30;2.30;;;;;;;-128.00;-1.00;-1.00;18868;297;7506904;-32
2023/07/17 07:39:34;;;;;;;2.50;1.90;;;;;;;-128.00;-1.00;-1.00;18851;297;7504908;-33
2023/07/17 07:42:00;;;;;;;2.90;1.40;;;;;;;-128.00;-1.00;-1.00;18884;342;7504306;-33
2023/07/17 07:44:26;;;;;;;2.00;1.60;;;;;;;-128.00;-1.00;-1.00;18890;297;7504765;-37
2023/07/17 07:46:53;;;;;;;2.60;1.80;;;;;;;-128.00;-1.00;-1.00;18897;298;7504674;-34
2023/07/17 07:49:19;;;;;;;2.20;1.50;;;;;;;-128.00;-1.00;-1.00;18873;332;7504721;-33
2023/07/17 07:51:45;;;;;;;2.70;1.90;;;;;;;-128.00;-1.00;-1.00;18869;298;7505208;-36
2023/07/17 07:54:11;;;;;;;2.80;1.60;;;;;;;-128.00;-1.00;-1.00;18827;298;7505327;-32
2023/07/17 07:56:38;;;;;;;1.80;1.40;;;;;;;-128.00;-1.00;-1.00;18888;349;7504759;-35
2023/07/17 07:59:04;;;;;;;7.70;1.80;;;;;;;-128.00;-1.00;-1.00;18878;321;7504929;-37
2023/07/17 08:01:30;;;;;;;2.80;2.30;;;;;;;-128.00;-1.00;-1.00;18836;298;7505139;-36
2023/07/17 08:03:56;;;;;;;2.50;1.80;;;;;;;-128.00;-1.00;-1.00;18875;297;7504968;-36
2023/07/17 08:06:23;;;;;;;3.10;2.20;;;;;;;-128.00;-1.00;-1.00;18876;298;7505175;-33
2023/07/17 08:08:49;;;;;;;2.60;2.10;;;;;;;-128.00;-1.00;-1.00;18473;314;7506337;-37
2023/07/17 08:11:15;;;;;;;2.20;2.00;;;;;;;-128.00;-1.00;-1.00;18875;297;7504929;-36
2023/07/17 08:13:41;;;;;;;3.20;2.60;;;;;;;-128.00;-1.00;-1.00;18878;297;7504995;-33
2023/07/17 08:16:07;;;;;;;3.20;2.80;;;;;;;-128.00;-1.00;-1.00;18873;298;7505528;-33
2023/07/17 08:18:33;;;;;;;3.60;2.70;;;;;;;-128.00;-1.00;-1.00;18865;313;7504674;-33
2023/07/17 08:21:00;;;;;;;2.30;1.80;;;;;;;-128.00;-1.00;-1.00;18882;289;7506397;-37
2023/07/17 08:23:26;;;;;;;9.00;3.20;;;;;;;-128.00;-1.00;-1.00;18871;349;7504260;-37
2023/07/17 08:25:52;;;;;;;11.00;3.40;;;;;;;-128.00;-1.00;-1.00;18454;298;7505000;-37
2023/07/17 08:28:18;;;;;;;3.40;2.70;;;;;;;-128.00;-1.00;-1.00;18492;297;7504653;-36
2023/07/17 08:30:44;;;;;;;4.90;2.30;;;;;;;-128.00;-1.00;-1.00;18863;309;7504810;-33
2023/07/17 08:33:11;;;;;;;5.60;3.20;;;;;;;-128.00;-1.00;-1.00;18867;345;7506691;-35
2023/07/17 08:35:37;;;;;;;4.20;2.20;;;;;;;-128.00;-1.00;-1.00;18494;309;7504910;-35
2023/07/17 08:38:04;;;;;;;2.20;2.10;;;;;;;-128.00;-1.00;-1.00;18462;298;7506232;-31
2023/07/17 08:40:29;;;;;;;2.10;1.60;;;;;;;-128.00;-1.00;-1.00;18457;309;7506231;-39
2023/07/17 08:42:55;;;;;;;3.60;2.70;;;;;;;-128.00;-1.00;-1.00;18848;298;7504458;-35
2023/07/17 08:45:22;;;;;;;2.50;1.80;;;;;;;-128.00;-1.00;-1.00;18874;297;7505044;-32
2023/07/17 08:47:50;;;;;;;2.60;2.10;;;;;;;-128.00;-1.00;-1.00;18870;298;7506072;-32
2023/07/17 08:50:16;;;;;;;1.30;1.20;;;;;;;-128.00;-1.00;-1.00;18470;298;7506211;-36
2023/07/17 08:52:41;;;;;;;3.90;1.90;;;;;;;-128.00;-1.00;-1.00;18447;297;7504469;-32
2023/07/17 08:55:08;;;;;;;2.10;1.60;;;;;;;-128.00;-1.00;-1.00;18886;298;7504953;-36
2023/07/17 08:57:34;;;;;;;3.60;2.10;;;;;;;-128.00;-1.00;-1.00;18456;298;7505668;-32
2023/07/17 09:00:00;;;;;;;3.20;2.10;;;;;;;-128.00;-1.00;-1.00;18445;298;7505099;-32
2023/07/17 09:02:26;;;;;;;2.30;1.70;;;;;;;-128.00;-1.00;-1.00;18879;338;7504127;-35
2023/07/17 09:04:52;;;;;;;2.20;1.60;;;;;;;-128.00;-1.00;-1.00;18880;285;7504715;-36
2023/07/17 09:07:19;;;;;;;2.40;1.90;;;;;;;-128.00;-1.00;-1.00;18860;298;7504828;-32
2023/07/17 09:09:45;;;;;;;3.30;2.60;;;;;;;-128.00;-1.00;-1.00;18872;297;7505171;-32
2023/07/17 09:12:12;;;;;;;4.20;1.70;;;;;;;-128.00;-1.00;-1.00;18861;298;7504474;-36
2023/07/17 09:14:38;;;;;;;4.40;2.10;;;;;;;-128.00;-1.00;-1.00;18448;285;7505027;-35
2023/07/17 09:17:07;;;;;;;4.10;1.70;;;;;;;-128.00;-1.00;-1.00;18464;349;7506612;-32
2023/07/17 09:19:33;;;;;;;1.80;1.30;;;;;;;-128.00;-1.00;-1.00;18461;298;7504480;-36
2023/07/17 09:22:01;;;;;;;2.90;1.50;;;;;;;-128.00;-1.00;-1.00;17990;297;7506464;-36
2023/07/17 09:24:27;;;;;;;2.40;1.70;;;;;;;-128.00;-1.00;-1.00;18431;298;7505052;-36
2023/07/17 09:26:56;;;;;;;1.80;1.30;;;;;;;-128.00;-1.00;-1.00;18466;310;7504355;-32
2023/07/17 09:29:23;;;;;;;1.70;1.60;;;;;;;-128.00;-1.00;-1.00;18474;333;7505126;-36
2023/07/17 09:31:49;;;;;;;1.70;1.60;;;;;;;-128.00;-1.00;-1.00;18455;298;7505290;-36
2023/07/17 09:34:15;;;;;;;1.20;0.90;;;;;;;-128.00;-1.00;-1.00;18465;298;7506198;-32
2023/07/17 09:36:41;;;;;;;2.20;1.70;;;;;;;-128.00;-1.00;-1.00;18451;314;7507019;-32
2023/07/17 09:39:07;;;;;;;10.00;1.20;;;;;;;-128.00;-1.00;-1.00;18467;309;7504704;-35
2023/07/17 09:41:33;;;;;;;9.60;1.90;;;;;;;-128.00;-1.00;-1.00;18463;297;7505067;-32
2023/07/17 09:44:03;;;;;;;2.00;1.80;;;;;;;-128.00;-1.00;-1.00;18466;297;7505809;-35
2023/07/17 09:46:29;;;;;;;2.20;2.00;;;;;;;-128.00;-1.00;-1.00;18443;297;7504819;-37
2023/07/17 09:48:56;;;;;;;11.50;1.90;;;;;;;-128.00;-1.00;-1.00;18410;299;7504510;-32
2023/07/17 09:51:21;;;;;;;2.00;1.40;;;;;;;-128.00;-1.00;-1.00;18470;297;7507089;-36
2023/07/17 09:53:47;;;;;;;2.50;1.50;;;;;;;-128.00;-1.00;-1.00;18485;298;7505297;-36
2023/07/17 09:56:15;;;;;;;3.00;2.20;;;;;;;-128.00;-1.00;-1.00;18457;309;7504611;-32
2023/07/17 09:58:44;;;;;;;1.90;1.10;;;;;;;-128.00;-1.00;-1.00;18468;297;7505390;-33
2023/07/17 10:01:11;;;;;;;4.60;2.80;;;;;;;-128.00;-1.00;-1.00;18447;299;7504881;-36
2023/07/17 10:03:37;;;;;;;2.20;2.00;;;;;;;-128.00;-1.00;-1.00;18455;298;7504547;-32
2023/07/17 10:06:02;;;;;;;2.40;1.70;;;;;;;-128.00;-1.00;-1.00;18453;297;7504885;-32
2023/07/17 10:08:29;;;;;;;3.20;1.80;;;;;;;-128.00;-1.00;-1.00;18477;298;7504690;-36
2023/07/17 10:10:54;;;;;;;2.10;1.90;;;;;;;-128.00;-1.00;-1.00;18460;297;7506266;-32
2023/07/17 10:13:20;;;;;;;3.30;2.50;;;;;;;-128.00;-1.00;-1.00;18881;298;7505246;-36
2023/07/17 10:15:46;;;;;;;3.30;2.60;;;;;;;-128.00;-1.00;-1.00;18894;297;7505946;-36
2023/07/17 10:18:13;;;;;;;2.40;2.10;;;;;;;-128.00;-1.00;-1.00;18858;349;7505296;-36
2023/07/17 10:20:42;;;;;;;3.00;2.40;;;;;;;-128.00;-1.00;-1.00;18857;342;7506897;-33
2023/07/17 10:23:24;;;;;;;1.70;1.60;;;;;;;-128.00;-1.00;-1.00;18464;297;7504516;-36
2023/07/17 10:25:50;;;;;;;3.10;2.00;;;;;;;-128.00;-1.00;-1.00;18478;298;7505803;-36
2023/07/17 10:28:29;;;;;;;1.90;1.30;;;;;;;-128.00;-1.00;-1.00;18451;297;7505163;-33
2023/07/17 10:30:55;;;;;;;3.20;2.30;;;;;;;-128.00;-1.00;-1.00;18474;299;7504694;-32
2023/07/17 10:33:22;;;;;;;3.00;2.10;;;;;;;-128.00;-1.00;-1.00;18463;349;7506251;-39
2023/07/17 10:35:55;;;;;;;2.60;1.30;;;;;;;-128.00;-1.00;-1.00;18466;298;7505872;-32
2023/07/17 10:38:28;;;;;;;2.10;1.60;;;;;;;-128.00;-1.00;-1.00;18501;298;7504244;-32
2023/07/17 10:41:25;;;;;;;2.40;2.00;;;;;;;-128.00;-1.00;-1.00;18459;349;7504418;-32
2023/07/17 10:43:56;;;;;;;4.50;1.80;;;;;;;-128.00;-1.00;-1.00;18460;299;7504681;-36
2023/07/17 10:46:27;;;;;;;;;;;;;;;-128.00;-1.00;-1.00;18467;298;7506007;-36
2023/07/17 10:48:53;;;;;;;3.50;1.40;;;;;;;-128.00;-1.00;-1.00;18468;338;7504152;-32
2023/07/17 10:51:18;;;;;;;2.20;2.00;;;;;;;-128.00;-1.00;-1.00;18437;342;7504625;-35
2023/07/17 10:53:44;;;;;;;2.60;1.90;;;;;;;-128.00;-1.00;-1.00;18879;297;7505468;-35
2023/07/17 10:56:11;;;;;;;4.00;2.20;;;;;;;-128.00;-1.00;-1.00;18849;297;7504351;-38
2023/07/17 10:58:37;;;;;;;4.00;2.00;;;;;;;-128.00;-1.00;-1.00;18839;318;7504228;-37
2023/07/17 11:01:04;;;;;;;4.90;2.70;;;;;;;-128.00;-1.00;-1.00;18872;309;7505296;-38
2023/07/17 11:03:29;;;;;;;4.60;1.60;;;;;;;-128.00;-1.00;-1.00;18457;298;7504364;-34
2023/07/17 11:05:56;;;;;;;1.90;1.50;;;;;;;-128.00;-1.00;-1.00;18852;341;7505608;-32
2023/07/17 11:08:24;;;;;;;2.10;1.40;;;;;;;-128.00;-1.00;-1.00;18474;345;7505600;-32
2023/07/17 11:10:50;;;;;;;1.80;1.50;;;;;;;-128.00;-1.00;-1.00;18468;297;7505943;-36
2023/07/17 11:13:15;;;;;;;1.10;1.00;;;;;;;-128.00;-1.00;-1.00;18461;298;7506157;-36
2023/07/17 11:15:42;;;;;;;1.50;1.40;;;;;;;-128.00;-1.00;-1.00;18462;298;7504578;-35
2023/07/17 11:18:09;;;;;;;1.40;1.30;;;;;;;-128.00;-1.00;-1.00;18469;298;7505432;-35
2023/07/17 11:20:35;;;;;;;2.30;1.60;;;;;;;-128.00;-1.00;-1.00;18441;297;7504325;-36
2023/07/17 11:23:03;;;;;;;2.10;1.70;;;;;;;-128.00;-1.00;-1.00;18473;301;7504889;-37
2023/07/17 11:25:29;;;;;;;2.50;1.20;;;;;;;-128.00;-1.00;-1.00;18467;297;7506162;-35
2023/07/17 11:27:58;;;;;;;2.40;2.00;;;;;;;-128.00;-1.00;-1.00;18470;297;7504521;-33
2023/07/17 11:30:28;;;;;;;2.40;1.60;;;;;;;-128.00;-1.00;-1.00;18493;298;7504583;-33
2023/07/17 11:33:01;;;;;;;2.40;1.80;;;;;;;-128.00;-1.00;-1.00;18452;338;7504783;-31
2023/07/17 11:35:40;;;;;;;2.20;1.90;;;;;;;-128.00;-1.00;-1.00;18438;349;7506000;-36
2023/07/17 11:38:07;;;;;;;5.20;2.30;;;;;;;-128.00;-1.00;-1.00;18455;301;7505369;-36
2023/07/17 11:40:33;;;;;;;3.60;2.00;;;;;;;-128.00;-1.00;-1.00;18462;297;7505141;-33
2023/07/17 11:43:03;;;;;;;5.00;2.20;;;;;;;-128.00;-1.00;-1.00;18851;299;7504916;-32
2023/07/17 11:45:29;;;;;;;2.20;1.70;;;;;;;-128.00;-1.00;-1.00;18476;298;7506080;-36
2023/07/17 11:47:55;;;;;;;2.60;2.30;;;;;;;-128.00;-1.00;-1.00;18479;298;7505714;-35
2023/07/17 11:50:25;;;;;;;2.00;1.90;;;;;;;-128.00;-1.00;-1.00;18481;297;7506571;-36
2023/07/17 11:53:07;;;;;;;3.20;1.70;;;;;;;-128.00;-1.00;-1.00;18476;297;7504351;-36
2023/07/17 11:55:36;;;;;;;1.80;1.00;;;;;;;-128.00;-1.00;-1.00;18475;298;7504187;-32
2023/07/17 11:58:13;;;;;;;2.10;2.00;;;;;;;-128.00;-1.00;-1.00;18460;298;7504471;-32
2023/07/17 12:00:44;;;;;;;3.10;2.20;;;;;;;-128.00;-1.00;-1.00;18489;309;7504778;-36
2023/07/17 12:03:09;;;;;;;1.10;0.90;;;;;;;-128.00;-1.00;-1.00;18466;297;7504310;-34
2023/07/17 12:05:36;;;;;;;1.60;1.40;;;;;;;-128.00;-1.00;-1.00;18507;297;7504515;-36
2023/07/17 12:08:01;;;;;;;2.10;1.90;;;;;;;-128.00;-1.00;-1.00;18467;298;7504767;-32
2023/07/17 12:10:27;;;;;;;3.00;1.60;;;;;;;-128.00;-1.00;-1.00;18469;286;7505794;-36